createdAt,value
2018-09-29T00:02:12.423Z,94967.54
2018-09-29T00:04:41.288Z,94969.17
2018-09-29T00:07:10.072Z,94962.42
2018-09-29T00:09:38.933Z,94969.23
2018-09-29T00:12:07.852Z,94972.88
2018-09-29T00:14:36.637Z,94961.65
2018-09-29T00:17:05.555Z,94964.28
2018-09-29T00:19:34.380Z,94968.61
2018-09-29T00:22:03.346Z,94968.22
2018-09-29T00:24:32.247Z,94958.30
2018-09-29T00:27:01.068Z,94960.93
2018-09-29T00:29:30.097Z,94954.25
2018-09-29T00:31:58.937Z,94957.06
2018-09-29T00:34:27.779Z,94953.44
2018-09-29T00:36:56.560Z,94949.58
2018-09-29T00:39:25.355Z,94946.22
2018-09-29T00:41:54.167Z,94939.08
2018-09-29T00:44:22.980Z,94931.30
2018-09-29T00:46:51.796Z,94925.66
2018-09-29T00:49:20.652Z,94925.35
2018-09-29T00:51:49.475Z,94930.21
2018-09-29T00:54:18.377Z,94926.58
2018-09-29T00:56:47.240Z,94929.91
2018-09-29T00:59:16.047Z,94923.38
2018-09-29T01:01:44.896Z,94922.95
2018-09-29T01:04:13.767Z,94926.89
2018-09-29T01:06:42.570Z,94923.27
2018-09-29T01:09:11.366Z,94922.45
2018-09-29T01:11:40.483Z,94926.89
2018-09-29T01:14:09.660Z,94930.83
2018-09-29T01:16:38.448Z,94937.92
2018-09-29T01:19:07.307Z,94928.20
2018-09-29T01:21:36.125Z,94933.06
2018-09-29T01:24:04.947Z,94931.75
2018-09-29T01:26:33.837Z,94933.48
2018-09-29T01:29:02.723Z,94925.59
2018-09-29T01:31:31.605Z,94919.84
2018-09-29T01:34:00.464Z,94920.04
2018-09-29T01:36:29.354Z,94921.08
2018-09-29T01:38:58.167Z,94919.45
2018-09-29T01:41:27.036Z,94913.09
2018-09-29T01:43:55.826Z,94915.41
2018-09-29T01:46:24.699Z,94908.44
2018-09-29T01:48:53.568Z,94910.97
2018-09-29T01:51:22.336Z,94908.77
2018-09-29T01:53:57.640Z,94914.20
2018-09-29T01:56:26.408Z,94913.78
2018-09-29T01:58:55.239Z,94914.91
2018-09-29T02:01:24.107Z,94917.41
2018-09-29T02:03:52.895Z,94920.16
2018-09-29T02:06:21.683Z,94916.81
2018-09-29T02:08:50.469Z,94916.92
2018-09-29T02:11:19.304Z,94913.30
2018-09-29T02:13:48.153Z,94915.01
2018-09-29T02:16:17.005Z,94911.18
2018-09-29T02:18:45.851Z,94915.63
2018-09-29T02:21:14.735Z,94919.05
2018-09-29T02:23:43.556Z,94913.88
2018-09-29T02:26:12.424Z,94918.83
2018-09-29T02:28:41.663Z,94912.27
2018-09-29T02:31:10.542Z,94912.88
2018-09-29T02:33:39.342Z,94918.34
2018-09-29T02:36:08.167Z,94916.21
2018-09-29T02:38:37.010Z,94919.86
2018-09-29T02:41:06.000Z,94921.41
2018-09-29T02:43:34.828Z,94928.86
2018-09-29T02:46:03.601Z,94924.91
2018-09-29T02:48:32.537Z,94921.41
2018-09-29T02:51:01.376Z,94909.16
2018-09-29T02:53:30.228Z,94904.21
2018-09-29T02:55:59.084Z,94900.27
2018-09-29T02:58:27.888Z,94903.09
2018-09-29T03:00:56.726Z,94899.08
2018-09-29T03:03:25.517Z,94893.02
2018-09-29T03:05:54.323Z,94895.59
2018-09-29T03:08:23.184Z,94894.41
2018-09-29T03:10:51.991Z,94892.57
2018-09-29T03:13:20.891Z,94883.11
2018-09-29T03:15:50.515Z,94890.98
2018-09-29T03:18:19.344Z,94884.01
2018-09-29T03:20:48.232Z,94880.77
2018-09-29T03:23:17.100Z,94883.59
2018-09-29T03:25:46.108Z,94890.67
2018-09-29T03:28:15.185Z,94885.81
2018-09-29T03:30:43.996Z,94881.30
2018-09-29T03:33:12.816Z,94876.75
2018-09-29T03:35:41.652Z,94865.53
2018-09-29T03:38:10.508Z,94868.38
2018-09-29T03:40:39.352Z,94876.34
2018-09-29T03:43:08.243Z,94882.17
2018-09-29T03:45:37.180Z,94878.05
2018-09-29T03:48:06.064Z,94880.56
2018-09-29T03:50:34.889Z,94876.20
2018-09-29T03:53:03.849Z,94881.88
2018-09-29T03:55:32.830Z,94880.75
2018-09-29T03:58:01.649Z,94876.09
2018-09-29T04:00:30.494Z,94876.51
2018-09-29T04:02:59.410Z,94888.20
2018-09-29T04:05:28.260Z,94884.88
2018-09-29T04:07:57.052Z,94881.53
2018-09-29T04:10:25.844Z,94877.70
2018-09-29T04:12:54.762Z,94877.02
2018-09-29T04:15:23.655Z,94886.00
2018-09-29T04:17:52.499Z,94880.25
2018-09-29T04:20:21.362Z,94872.47
2018-09-29T04:22:50.170Z,94873.47
2018-09-29T04:25:18.961Z,94873.08
2018-09-29T04:27:47.735Z,94873.16
2018-09-29T04:30:16.564Z,94876.51
2018-09-29T04:32:45.503Z,94877.91
2018-09-29T04:35:14.396Z,94884.07
2018-09-29T04:37:43.273Z,94885.77
2018-09-29T04:40:12.483Z,94886.11
2018-09-29T04:42:41.394Z,94883.88
2018-09-29T04:45:10.240Z,94887.39
2018-09-29T04:47:39.331Z,94890.44
2018-09-29T04:50:08.088Z,94889.13
2018-09-29T04:52:36.873Z,94886.53
2018-09-29T04:55:05.971Z,94892.59
2018-09-29T04:57:34.736Z,94888.03
2018-09-29T05:00:04.947Z,94883.01
2018-09-29T05:02:33.747Z,94880.69
2018-09-29T05:05:02.557Z,94882.39
2018-09-29T05:07:31.364Z,94882.29
2018-09-29T05:10:00.239Z,94885.64
2018-09-29T05:12:29.004Z,94887.86
2018-09-29T05:14:57.861Z,94881.58
2018-09-29T05:17:26.760Z,94878.64
2018-09-29T05:19:55.671Z,94878.73
2018-09-29T05:22:24.532Z,94889.03
2018-09-29T05:24:53.389Z,94888.19
2018-09-29T05:27:22.415Z,94887.46
2018-09-29T05:29:51.204Z,94895.11
2018-09-29T05:32:20.085Z,94895.63
2018-09-29T05:34:48.959Z,94893.67
2018-09-29T05:37:17.768Z,94893.36
2018-09-29T05:39:53.406Z,94897.44
2018-09-29T05:42:22.389Z,94894.30
2018-09-29T05:44:51.307Z,94901.55
2018-09-29T05:47:20.424Z,94899.52
2018-09-29T05:49:49.241Z,94900.29
2018-09-29T05:52:18.808Z,94898.37
2018-09-29T05:54:47.600Z,94893.95
2018-09-29T05:57:16.493Z,94893.25
2018-09-29T05:59:45.352Z,94892.81
2018-09-29T06:02:14.171Z,94902.31
2018-09-29T06:04:42.965Z,94902.92
2018-09-29T06:07:11.901Z,94903.44
2018-09-29T06:09:40.825Z,94902.52
2018-09-29T06:12:09.656Z,94894.88
2018-09-29T06:14:38.512Z,94904.13
2018-09-29T06:17:07.315Z,94906.03
2018-09-29T06:19:36.193Z,94900.88
2018-09-29T06:22:05.075Z,94899.29
2018-09-29T06:24:33.899Z,94899.45
2018-09-29T06:27:02.879Z,94896.72
2018-09-29T06:29:31.692Z,94899.80
2018-09-29T06:32:00.653Z,94898.94
2018-09-29T06:34:31.449Z,94907.61
2018-09-29T06:37:00.381Z,94908.76
2018-09-29T06:39:29.218Z,94904.08
2018-09-29T06:41:58.357Z,94914.50
2018-09-29T06:44:27.308Z,94908.61
2018-09-29T06:46:56.135Z,94910.05
2018-09-29T06:49:24.985Z,94907.03
2018-09-29T06:51:54.040Z,94911.89
2018-09-29T06:54:22.928Z,94912.30
2018-09-29T06:56:52.035Z,94912.57
2018-09-29T06:59:20.828Z,94919.32
2018-09-29T07:01:49.664Z,94921.30
2018-09-29T07:04:18.574Z,94920.05
2018-09-29T07:06:49.196Z,94921.66
2018-09-29T07:09:17.987Z,94930.15
2018-09-29T07:11:46.883Z,94924.48
2018-09-29T07:14:15.763Z,94924.75
2018-09-29T07:16:44.743Z,94923.20
2018-09-29T07:19:14.015Z,94922.91
2018-09-29T07:21:42.909Z,94934.26
2018-09-29T07:24:11.825Z,94931.54
2018-09-29T07:26:40.732Z,94930.36
2018-09-29T07:29:09.651Z,94922.55
2018-09-29T07:31:38.671Z,94922.44
2018-09-29T07:34:08.117Z,94924.63
2018-09-29T07:36:36.958Z,94931.29
2018-09-29T07:39:08.443Z,94933.03
2018-09-29T07:41:37.402Z,94934.45
2018-09-29T07:44:06.338Z,94933.70
2018-09-29T07:46:35.154Z,94935.55
2018-09-29T07:49:04.047Z,94936.58
2018-09-29T07:51:33.179Z,94936.77
2018-09-29T07:54:02.072Z,94936.58
2018-09-29T07:56:30.995Z,94938.07
2018-09-29T07:59:00.078Z,94936.97
2018-09-29T08:01:29.046Z,94941.41
2018-09-29T08:03:57.862Z,94940.39
2018-09-29T08:06:26.793Z,94932.02
2018-09-29T08:08:55.817Z,94931.41
2018-09-29T08:11:24.667Z,94932.39
2018-09-29T08:13:53.609Z,94931.21
2018-09-29T08:16:22.445Z,94928.42
2018-09-29T08:18:51.238Z,94931.64
2018-09-29T08:21:20.277Z,94934.09
2018-09-29T08:23:49.505Z,94928.70
2018-09-29T08:26:18.680Z,94924.02
2018-09-29T08:28:47.482Z,94927.08
2018-09-29T08:31:16.521Z,94922.13
2018-09-29T08:33:45.297Z,94916.39
2018-09-29T08:36:14.163Z,94925.05
2018-09-29T08:38:43.057Z,94921.98
2018-09-29T08:41:11.871Z,94922.63
2018-09-29T08:43:40.684Z,94915.66
2018-09-29T08:46:09.659Z,94900.94
2018-09-29T08:48:38.457Z,94904.44
2018-09-29T08:51:07.299Z,94905.80
2018-09-29T08:53:36.217Z,94900.02
2018-09-29T08:56:05.186Z,94896.28
2018-09-29T08:58:33.993Z,94893.13
2018-09-29T09:01:03.024Z,94895.55
2018-09-29T09:03:31.943Z,94892.07
2018-09-29T09:06:00.878Z,94886.72
2018-09-29T09:08:29.676Z,94887.08
2018-09-29T09:10:58.513Z,94885.36
2018-09-29T09:13:27.379Z,94885.27
2018-09-29T09:15:56.212Z,94884.51
2018-09-29T09:18:25.008Z,94888.34
2018-09-29T09:20:53.839Z,94884.89
2018-09-29T09:23:22.741Z,94878.47
2018-09-29T09:25:51.589Z,94887.29
2018-09-29T09:28:20.358Z,94883.31
2018-09-29T09:30:49.239Z,94883.80
2018-09-29T09:33:18.056Z,94879.75
2018-09-29T09:35:46.876Z,94880.78
2018-09-29T09:38:15.810Z,94882.55
2018-09-29T09:40:44.740Z,94885.63
2018-09-29T09:43:13.547Z,94889.47
2018-09-29T09:45:42.450Z,94883.56
2018-09-29T09:48:11.287Z,94883.59
2018-09-29T09:50:40.136Z,94881.15
2018-09-29T09:53:08.961Z,94882.78
2018-09-29T09:55:37.776Z,94883.59
2018-09-29T09:58:06.808Z,94886.78
2018-09-29T10:00:40.762Z,94890.63
2018-09-29T10:03:14.684Z,94888.22
2018-09-29T10:05:43.683Z,94888.19
2018-09-29T10:08:12.484Z,94882.67
2018-09-29T10:10:42.398Z,94873.61
2018-09-29T10:13:11.279Z,94863.52
2018-09-29T10:15:40.104Z,94866.95
2018-09-29T10:18:08.971Z,94861.59
2018-09-29T10:20:37.759Z,94857.41
2018-09-29T10:23:06.805Z,94860.98
2018-09-29T10:25:35.597Z,94851.64
2018-09-29T10:28:04.492Z,94849.47
2018-09-29T10:30:33.315Z,94852.66
2018-09-29T10:33:02.136Z,94852.83
2018-09-29T10:35:30.933Z,94846.69
2018-09-29T10:38:00.149Z,94847.53
2018-09-29T10:40:28.984Z,94838.42
2018-09-29T10:42:57.862Z,94842.23
2018-09-29T10:45:26.741Z,94844.41
2018-09-29T10:47:55.561Z,94836.16
2018-09-29T10:50:24.510Z,94831.69
2018-09-29T10:52:53.334Z,94832.91
2018-09-29T10:55:22.431Z,94822.71
2018-09-29T10:57:51.273Z,94822.81
2018-09-29T11:00:20.161Z,94813.01
2018-09-29T11:02:49.068Z,94818.64
2018-09-29T11:05:17.900Z,94813.37
2018-09-29T11:07:46.680Z,94811.30
2018-09-29T11:10:15.482Z,94797.21
2018-09-29T11:12:44.497Z,94806.28
2018-09-29T11:15:13.500Z,94804.94
2018-09-29T11:17:42.373Z,94806.78
2018-09-29T11:20:11.227Z,94795.61
2018-09-29T11:22:40.055Z,94800.66
2018-09-29T11:25:09.340Z,94800.07
2018-09-29T11:27:38.307Z,94789.92
2018-09-29T11:30:07.689Z,94796.89
2018-09-29T11:32:36.557Z,94795.28
2018-09-29T11:35:05.646Z,94800.59
2018-09-29T11:37:34.484Z,94790.44
2018-09-29T11:40:03.253Z,94785.34
2018-09-29T11:42:32.188Z,94786.36
2018-09-29T11:45:01.013Z,94779.98
2018-09-29T11:47:29.840Z,94777.89
2018-09-29T11:49:58.646Z,94782.42
2018-09-29T11:52:27.528Z,94776.05
2018-09-29T11:54:57.019Z,94776.06
2018-09-29T11:57:25.906Z,94783.03
2018-09-29T11:59:54.803Z,94767.61
2018-09-29T12:02:23.689Z,94770.79
2018-09-29T12:04:52.644Z,94773.23
2018-09-29T12:07:21.592Z,94779.66
2018-09-29T12:09:50.529Z,94775.41
2018-09-29T12:12:20.048Z,94777.52
2018-09-29T12:14:49.344Z,94775.66
2018-09-29T12:17:18.291Z,94760.77
2018-09-29T12:19:47.189Z,94760.77
2018-09-29T12:22:16.091Z,94755.45
2018-09-29T12:24:45.164Z,94764.55
2018-09-29T12:27:14.036Z,94764.59
2018-09-29T12:29:43.295Z,94761.96
2018-09-29T12:32:12.329Z,94763.05
2018-09-29T12:34:41.232Z,94760.66
2018-09-29T12:37:10.112Z,94761.74
2018-09-29T12:39:39.017Z,94760.98
2018-09-29T12:42:07.864Z,94762.33
2018-09-29T12:44:36.766Z,94758.08
2018-09-29T12:47:06.090Z,94756.45
2018-09-29T12:49:35.295Z,94760.48
2018-09-29T12:52:04.285Z,94755.92
2018-09-29T12:54:33.277Z,94751.64
2018-09-29T12:57:02.079Z,94756.76
2018-09-29T12:59:30.879Z,94751.69
2018-09-29T13:01:59.699Z,94752.48
2018-09-29T13:04:28.604Z,94749.03
2018-09-29T13:06:57.528Z,94747.69
2018-09-29T13:09:26.523Z,94736.48
2018-09-29T13:11:55.372Z,94736.17
2018-09-29T13:14:24.236Z,94734.58
2018-09-29T13:16:53.189Z,94723.66
2018-09-29T13:19:22.228Z,94733.25
2018-09-29T13:21:51.064Z,94732.72
2018-09-29T13:24:20.041Z,94739.12
2018-09-29T13:26:48.932Z,94740.44
2018-09-29T13:29:17.704Z,94736.72
2018-09-29T13:31:46.506Z,94731.65
2018-09-29T13:34:15.515Z,94732.45
2018-09-29T13:36:44.325Z,94730.08
2018-09-29T13:39:13.199Z,94734.34
2018-09-29T13:41:42.060Z,94732.21
2018-09-29T13:44:10.902Z,94736.48
2018-09-29T13:46:39.646Z,94734.32
2018-09-29T13:49:08.428Z,94726.87
2018-09-29T13:51:37.261Z,94731.14
2018-09-29T13:54:06.230Z,94735.94
2018-09-29T13:56:35.076Z,94737.81
2018-09-29T13:59:03.974Z,94732.20
2018-09-29T14:01:32.820Z,94740.72
2018-09-29T14:04:01.689Z,94738.05
2018-09-29T14:06:30.553Z,94734.59
2018-09-29T14:08:59.393Z,94735.93
2018-09-29T14:11:28.322Z,94731.11
2018-09-29T14:13:57.252Z,94737.52
2018-09-29T14:16:26.140Z,94740.70
2018-09-29T14:18:54.924Z,94746.54
2018-09-29T14:21:23.820Z,94751.06
2018-09-29T14:23:52.656Z,94751.06
2018-09-29T14:26:21.420Z,94756.38
2018-09-29T14:28:50.204Z,94753.44
2018-09-29T14:31:18.998Z,94755.00
2018-09-29T14:33:47.825Z,94763.02
2018-09-29T14:36:16.667Z,94762.77
2018-09-29T14:38:45.485Z,94763.03
2018-09-29T14:41:17.330Z,94767.03
2018-09-29T14:43:46.105Z,94767.27
2018-09-29T14:46:15.021Z,94766.76
2018-09-29T14:48:43.799Z,94772.65
2018-09-29T14:51:12.734Z,94782.48
2018-09-29T14:53:41.713Z,94790.73
2018-09-29T14:56:10.507Z,94786.98
2018-09-29T14:58:39.400Z,94794.66
2018-09-29T15:01:08.371Z,94790.06
2018-09-29T15:03:37.216Z,94794.53
2018-09-29T15:06:05.989Z,94800.12
2018-09-29T15:08:34.956Z,94798.52
2018-09-29T15:11:03.810Z,94805.44
2018-09-29T15:13:32.677Z,94801.39
2018-09-29T15:16:01.513Z,94812.82
2018-09-29T15:18:30.394Z,94814.64
2018-09-29T15:20:59.252Z,94817.28
2018-09-29T15:23:28.149Z,94819.39
2018-09-29T15:25:57.029Z,94817.73
2018-09-29T15:28:26.121Z,94821.91
2018-09-29T15:30:54.960Z,94825.87
2018-09-29T15:33:23.882Z,94831.66
2018-09-29T15:35:52.725Z,94827.65
2018-09-29T15:38:21.559Z,94835.08
2018-09-29T15:40:50.387Z,94831.05
2018-09-29T15:43:19.216Z,94836.78
2018-09-29T15:45:48.625Z,94842.53
2018-09-29T15:48:17.701Z,94846.23
2018-09-29T15:50:46.509Z,94849.91
2018-09-29T15:53:15.294Z,94857.58
2018-09-29T15:55:44.161Z,94858.03
2018-09-29T15:58:13.196Z,94863.27
2018-09-29T16:00:42.034Z,94869.84
2018-09-29T16:03:10.861Z,94869.48
2018-09-29T16:05:39.728Z,94871.45
2018-09-29T16:08:08.660Z,94873.42
2018-09-29T16:10:37.471Z,94877.20
2018-09-29T16:13:06.404Z,94879.47
2018-09-29T16:15:35.239Z,94883.31
2018-09-29T16:18:04.036Z,94895.67
2018-09-29T16:20:32.833Z,94892.64
2018-09-29T16:23:01.685Z,94888.04
2018-09-29T16:25:30.994Z,94889.84
2018-09-29T16:27:59.832Z,94900.58
2018-09-29T16:30:28.777Z,94905.44
2018-09-29T16:32:57.709Z,94902.72
2018-09-29T16:35:26.572Z,94903.48
2018-09-29T16:37:55.370Z,94915.77
2018-09-29T16:40:24.268Z,94916.11
2018-09-29T16:42:53.069Z,94925.28
2018-09-29T16:45:22.066Z,94921.30
2018-09-29T16:47:51.035Z,94926.70
2018-09-29T16:50:20.058Z,94926.34
2018-09-29T16:52:48.962Z,94934.76
2018-09-29T16:55:17.797Z,94937.50
2018-09-29T16:57:46.686Z,94936.10
2018-09-29T17:00:18.274Z,94934.48
2018-09-29T17:02:47.069Z,94941.86
2018-09-29T17:05:15.897Z,94941.75
2018-09-29T17:07:44.772Z,94948.54
2018-09-29T17:10:13.682Z,94953.11
2018-09-29T17:12:42.708Z,94960.95
2018-09-29T17:15:11.624Z,94968.77
2018-09-29T17:17:40.549Z,94975.39
2018-09-29T17:20:09.440Z,94972.22
2018-09-29T17:22:38.360Z,94967.16
2018-09-29T17:25:07.313Z,94970.00
2018-09-29T17:27:36.109Z,94973.84
2018-09-29T17:30:06.910Z,94983.02
2018-09-29T17:32:35.833Z,94984.99
2018-09-29T17:35:05.052Z,94986.09
2018-09-29T17:37:34.021Z,94987.67
2018-09-29T17:40:03.008Z,94980.08
2018-09-29T17:42:31.898Z,94988.34
2018-09-29T17:45:00.739Z,94985.53
2018-09-29T17:47:29.632Z,94998.98
2018-09-29T17:49:58.453Z,95008.82
2018-09-29T17:52:27.396Z,95007.72
2018-09-29T17:54:56.851Z,95007.99
2018-09-29T17:57:27.594Z,95017.14
2018-09-29T18:00:15.367Z,95013.63
2018-09-29T18:03:27.888Z,95024.23
2018-09-29T18:05:56.881Z,95035.70
2018-09-29T18:08:25.961Z,95050.94
2018-09-29T18:10:55.548Z,95046.34
2018-09-29T18:13:24.567Z,95048.39
2018-09-29T18:15:53.549Z,95051.51
2018-09-29T18:18:22.670Z,95055.98
2018-09-29T18:20:51.567Z,95058.28
2018-09-29T18:23:20.597Z,95065.27
2018-09-29T18:25:49.506Z,95071.59
2018-09-29T18:28:18.454Z,95077.91
2018-09-29T18:30:47.338Z,95080.47
2018-09-29T18:33:16.155Z,95081.66
2018-09-29T18:35:45.034Z,95082.44
2018-09-29T18:38:20.601Z,95088.48
2018-09-29T18:40:49.588Z,95098.66
2018-09-29T18:43:18.421Z,95096.83
2018-09-29T18:45:47.297Z,95100.57
2018-09-29T18:48:16.380Z,95104.23
2018-09-29T18:50:45.659Z,95115.72
2018-09-29T18:53:14.966Z,95108.61
2018-09-29T18:55:43.964Z,95116.73
2018-09-29T18:58:12.902Z,95116.98
2018-09-29T19:00:41.911Z,95117.41
2018-09-29T19:03:10.846Z,95124.43
2018-09-29T19:05:46.420Z,95118.04
2018-09-29T19:08:15.300Z,95125.94
2018-09-29T19:10:44.171Z,95119.92
2018-09-29T19:13:13.096Z,95126.42
2018-09-29T19:15:41.987Z,95125.55
2018-09-29T19:18:10.793Z,95130.95
2018-09-29T19:20:39.737Z,95136.02
2018-09-29T19:23:08.555Z,95143.22
2018-09-29T19:25:37.486Z,95144.71
2018-09-29T19:28:06.287Z,95145.31
2018-09-29T19:30:35.099Z,95153.52
2018-09-29T19:33:03.948Z,95155.56
2018-09-29T19:35:32.848Z,95151.76
2018-09-29T19:38:01.708Z,95154.40
2018-09-29T19:40:30.509Z,95151.97
2018-09-29T19:42:59.331Z,95162.55
2018-09-29T19:45:28.259Z,95156.83
2018-09-29T19:47:57.206Z,95159.94
2018-09-29T19:50:26.120Z,95166.05
2018-09-29T19:52:55.093Z,95165.66
2018-09-29T19:55:23.921Z,95171.53
2018-09-29T19:57:52.904Z,95169.66
2018-09-29T20:00:21.739Z,95176.92
2018-09-29T20:02:50.731Z,95175.44
2018-09-29T20:05:19.602Z,95172.59
2018-09-29T20:07:48.550Z,95176.16
2018-09-29T20:10:17.605Z,95168.09
2018-09-29T20:12:46.733Z,95170.94
2018-09-29T20:15:16.077Z,95177.06
2018-09-29T20:17:44.958Z,95180.22
2018-09-29T20:20:13.882Z,95176.20
2018-09-29T20:22:42.726Z,95178.03
2018-09-29T20:25:12.250Z,95178.84
2018-09-29T20:27:41.213Z,95177.33
2018-09-29T20:30:10.224Z,95175.59
2018-09-29T20:32:39.064Z,95177.82
2018-09-29T20:35:08.393Z,95174.78
2018-09-29T20:37:37.238Z,95176.41
2018-09-29T20:40:06.208Z,95180.41
2018-09-29T20:42:35.100Z,95172.19
2018-09-29T20:45:04.010Z,95178.34
2018-09-29T20:47:32.840Z,95181.32
2018-09-29T20:50:01.714Z,95182.90
2018-09-29T20:52:31.250Z,95182.30
2018-09-29T20:55:00.317Z,95187.70
2018-09-29T20:57:29.404Z,95193.05
2018-09-29T20:59:58.486Z,95194.03
2018-09-29T21:02:27.775Z,95190.75
2018-09-29T21:04:56.820Z,95183.75
2018-09-29T21:07:25.723Z,95180.05
2018-09-29T21:09:54.578Z,95174.48
2018-09-29T21:12:24.020Z,95175.50
2018-09-29T21:14:52.875Z,95181.41
2018-09-29T21:17:21.812Z,95184.80
2018-09-29T21:19:50.692Z,95179.94
2018-09-29T21:22:19.521Z,95179.58
2018-09-29T21:24:48.395Z,95182.61
2018-09-29T21:27:17.263Z,95185.86
2018-09-29T21:29:46.052Z,95184.75
2018-09-29T21:32:14.820Z,95183.13
2018-09-29T21:34:43.612Z,95182.41
2018-09-29T21:37:12.482Z,95184.95
2018-09-29T21:39:41.722Z,95176.98
2018-09-29T21:42:10.723Z,95181.53
2018-09-29T21:44:39.765Z,95174.34
2018-09-29T21:47:08.598Z,95180.76
2018-09-29T21:49:37.387Z,95183.39
2018-09-29T21:52:06.389Z,95184.58
2018-09-29T21:54:35.297Z,95178.70
2018-09-29T21:57:04.135Z,95178.50
2018-09-29T21:59:33.000Z,95178.39
2018-09-29T22:02:01.825Z,95179.10
2018-09-29T22:04:30.683Z,95176.98
2018-09-29T22:06:59.631Z,95175.86
2018-09-29T22:09:28.441Z,95172.08
2018-09-29T22:11:57.261Z,95172.98
2018-09-29T22:14:26.057Z,95172.48
2018-09-29T22:16:54.902Z,95174.70
2018-09-29T22:19:23.724Z,95175.79
2018-09-29T22:21:52.612Z,95174.88
2018-09-29T22:24:21.431Z,95180.14
2018-09-29T22:26:50.292Z,95183.29
2018-09-29T22:29:19.109Z,95175.08
2018-09-29T22:31:48.005Z,95175.38
2018-09-29T22:34:16.969Z,95178.02
2018-09-29T22:36:45.913Z,95181.36
2018-09-29T22:39:14.779Z,95182.98
2018-09-29T22:41:43.579Z,95178.73
2018-09-29T22:44:12.516Z,95182.92
2018-09-29T22:46:41.474Z,95184.44
2018-09-29T22:49:10.328Z,95186.83
2018-09-29T22:51:39.941Z,95190.65
2018-09-29T22:54:08.720Z,95199.56
2018-09-29T22:56:37.559Z,95198.31
2018-09-29T22:59:06.411Z,95201.45
2018-09-29T23:01:35.341Z,95200.54
2018-09-29T23:04:04.214Z,95204.39
2018-09-29T23:06:33.226Z,95197.80
2018-09-29T23:09:02.059Z,95207.09
2018-09-29T23:11:30.915Z,95203.13
2018-09-29T23:14:00.060Z,95200.94
2018-09-29T23:16:28.863Z,95201.75
2018-09-29T23:18:57.752Z,95202.56
2018-09-29T23:21:26.799Z,95204.80
2018-09-29T23:23:55.680Z,95200.84
2018-09-29T23:26:24.636Z,95197.40
2018-09-29T23:28:53.431Z,95200.34
2018-09-29T23:31:22.336Z,95201.69
2018-09-29T23:33:51.176Z,95200.23
2018-09-29T23:36:19.976Z,95200.14
2018-09-29T23:38:48.964Z,95200.78
2018-09-29T23:41:17.988Z,95203.83
2018-09-29T23:43:46.947Z,95193.72
2018-09-29T23:46:15.855Z,95192.78
2018-09-29T23:48:44.721Z,95195.55
2018-09-29T23:51:13.525Z,95199.70
2018-09-29T23:53:42.359Z,95197.48
2018-09-29T23:56:11.171Z,95195.18
2018-09-29T23:58:40.040Z,95189.09
